Harvey, AR

9:00 PM CDT on August 20, 2014 (GMT -0500)
RAWS ODEN AR US | Change Station
CLOSE
Current Station
Personal Weather Station
Location: Oden, AR
Elevation: 896 ft
Nearby Weather Stations
Active Advisory: Special Statement

Elev 896 ft 34.62 °N, 93.81 °W | Updated 33 minutes ago

Clear
Clear
79 °F
Feels Like 82 °F
N
1
Wind Variable Wind from South
Gusts 6.0 mph

Today
High -- | Low -- °F
--% Chance of Precip.
Yesterday
High -- | Low -- °F
Precip. -- in
6:39 AM 7:57 PM
Waning Crescent, 17% visible
Pressure 29.94 in
Visibility 10.0 miles
Clouds Clear
Heat Index 82 °F
Dew Point 71 °F
Humidity 76%
Rainfall 0.00 in
Snow Depth Not available.
UV 0 out of 12
Pollen 9.20 out of 12
Air Quality Not available.
Flu Activity Not available.
METAR KMWT 210153Z AUTO 00000KT 10SM CLR 26/23 A2998 RMK AO2 SLP139 T02560228

More Conditions Fewer Conditions

Pressure 29.94 in
Visibility 10.0 miles
Clouds Clear
Heat Index 82 °F
Dew Point 71 °F
Humidity 76%
Rainfall 0.00 in
Snow Depth Not available.
UV 0 out of 12
Pollen 9.20 out of 12
Air Quality Not available.
Flu Activity Not available.
METAR KMWT 210153Z AUTO 00000KT 10SM CLR 26/23 A2998 RMK AO2 SLP139 T02560228

More Conditions Fewer Conditions

10-Day Weather Forecast

Almanac

Astronomy

Aug. 20, 2014 Rise Set
Actual Time 6:39 AM CDT 7:57 PM CDT
Civil Twilight 6:12 AM CDT 8:23 PM CDT
Nautical Twilight 5:41 AM CDT 8:55 PM CDT
Astronomical Twilight 5:08 AM CDT 9:27 PM CDT
Moon 2:23 AM CDT (8/20) 4:38 PM CDT (8/20)
Length of Visible Light 14h 10m
Length of Day
13h 18m
Tomorrow will be 2m 0s shorter.
Waning Crescent, 17% of the Moon is Illuminated
Today
Waning Crescent
Aug 25
New
Sep 2
First Quarter
Sep 8
Full
Sep 15
Last Quarter

Today's Extremes

State Highs State Lows

Community

WunderPhotos

Upload Photos

1,745,853 photos uploaded!

WunderBlogs® & News

Nearby

Snow Depth

Station Depth Elevation
No new snow has been reported.

Earthquake Activity

City Distance Mag. Time & Date
No recent earthquake activity has been reported nearby.
Minimum magnitude displayed is 2.5.

Coastal Water Temperatures

Place Temperature
No Stations Reporting

Nearby Weather Stations